createdAt,value
2022-09-10T00:00:33.249Z,21.11
2022-09-10T00:12:33.709Z,21.01
2022-09-10T00:24:34.189Z,21.12
2022-09-10T00:36:34.626Z,21.45
2022-09-10T00:48:35.136Z,21.44
2022-09-10T01:00:35.546Z,21.34
2022-09-10T01:12:36.183Z,21.05
2022-09-10T01:24:36.415Z,21.25
2022-09-10T01:36:36.891Z,21.31
2022-09-10T01:48:37.346Z,20.79
2022-09-10T02:00:37.870Z,20.36
2022-09-10T02:12:38.233Z,20.82
2022-09-10T02:24:38.715Z,20.35
2022-09-10T02:36:39.133Z,20.59
2022-09-10T02:48:39.735Z,19.98
2022-09-10T03:00:40.081Z,19.72
2022-09-10T03:12:40.519Z,20.54
2022-09-10T03:24:40.965Z,20.81
2022-09-10T03:36:41.436Z,20.53
2022-09-10T03:48:41.844Z,20.43
2022-09-10T04:00:42.371Z,20.33
2022-09-10T04:12:42.823Z,19.36
2022-09-10T04:24:43.248Z,19.12
2022-09-10T04:36:43.690Z,19.90
2022-09-10T04:48:44.142Z,19.64
2022-09-10T05:00:44.643Z,19.68
2022-09-10T05:12:45.087Z,19.09
2022-09-10T05:24:45.462Z,18.80
2022-09-10T05:36:45.975Z,18.88
2022-09-10T05:48:46.629Z,18.68
2022-09-10T06:00:46.879Z,19.40
2022-09-10T06:12:47.319Z,19.20
2022-09-10T06:24:47.774Z,19.65
2022-09-10T06:36:48.244Z,19.88
2022-09-10T06:48:48.773Z,19.76
2022-09-10T07:00:49.180Z,21.02
2022-09-10T07:12:49.582Z,22.59
2022-09-10T07:24:50.053Z,22.63
2022-09-10T07:36:50.535Z,23.98
2022-09-10T07:48:50.966Z,24.51
2022-09-10T08:00:51.442Z,25.07
2022-09-10T08:12:51.862Z,24.77
2022-09-10T08:24:52.348Z,24.74
2022-09-10T08:36:52.784Z,24.42
2022-09-10T08:48:53.239Z,25.74
2022-09-10T09:00:53.668Z,25.69
2022-09-10T09:12:54.130Z,26.17
2022-09-10T09:24:54.592Z,27.10
2022-09-10T09:36:55.069Z,25.16
2022-09-10T09:48:55.488Z,27.18
2022-09-10T10:00:55.995Z,28.20
2022-09-10T10:12:56.421Z,28.95
2022-09-10T10:24:56.852Z,26.89
2022-09-10T10:36:57.314Z,31.00
2022-09-10T10:48:58.107Z,29.36
2022-09-10T11:00:58.260Z,26.87
2022-09-10T11:12:58.709Z,26.16
2022-09-10T11:24:59.168Z,27.19
2022-09-10T11:36:59.633Z,25.44
2022-09-10T11:49:00.052Z,25.98
2022-09-10T12:01:00.500Z,27.99
2022-09-10T12:13:01.004Z,27.96
2022-09-10T12:25:01.466Z,26.95
2022-09-10T12:37:01.902Z,26.25
2022-09-10T12:49:02.342Z,26.16
2022-09-10T13:01:02.775Z,27.04
2022-09-10T13:13:03.288Z,24.90
2022-09-10T13:25:03.702Z,23.29
2022-09-10T13:37:04.165Z,24.16
2022-09-10T13:49:04.616Z,25.75
2022-09-10T14:01:05.112Z,25.95
2022-09-10T14:13:05.563Z,25.81
2022-09-10T14:25:06.104Z,24.18
2022-09-10T14:37:06.440Z,25.71
2022-09-10T14:49:06.911Z,25.60
2022-09-10T15:01:07.407Z,25.91
2022-09-10T15:13:07.837Z,25.38
2022-09-10T15:25:10.859Z,25.86
2022-09-10T15:37:08.770Z,25.14
2022-09-10T15:49:09.238Z,24.45
2022-09-10T16:01:09.647Z,24.01
2022-09-10T16:13:10.108Z,24.39
2022-09-10T16:25:10.548Z,23.89
2022-09-10T16:37:11.007Z,23.85
2022-09-10T16:49:11.481Z,24.02
2022-09-10T17:01:11.927Z,23.82
2022-09-10T17:13:12.403Z,22.47
2022-09-10T17:25:12.811Z,22.73
2022-09-10T17:37:13.277Z,22.05
2022-09-10T17:49:13.727Z,21.48
2022-09-10T18:01:14.222Z,22.31
2022-09-10T18:13:14.696Z,21.07
2022-09-10T18:25:15.131Z,21.42
2022-09-10T18:37:15.575Z,21.46
2022-09-10T18:49:20.454Z,19.56
2022-09-10T19:01:16.574Z,20.91
2022-09-10T19:13:16.932Z,20.25
2022-09-10T19:25:17.378Z,20.20
2022-09-10T19:37:17.857Z,20.32
2022-09-10T19:49:18.328Z,20.40
2022-09-10T20:01:18.792Z,19.54
2022-09-10T20:13:19.189Z,19.72
2022-09-10T20:25:19.827Z,19.23
2022-09-10T20:37:20.093Z,19.68
2022-09-10T20:49:20.569Z,19.52
2022-09-10T21:01:21.069Z,19.75
2022-09-10T21:13:24.948Z,19.75
2022-09-10T21:25:21.898Z,18.90
2022-09-10T21:37:22.391Z,19.09
2022-09-10T21:49:22.835Z,18.15
2022-09-10T22:01:23.333Z,18.94
2022-09-10T22:13:23.711Z,19.10
2022-09-10T22:25:24.163Z,19.45
2022-09-10T22:37:24.629Z,18.71
2022-09-10T22:49:25.126Z,18.74
2022-09-10T23:01:25.590Z,19.42
2022-09-10T23:13:26.007Z,18.27
2022-09-10T23:25:26.451Z,18.90
2022-09-10T23:37:26.928Z,19.39
2022-09-10T23:49:27.386Z,18.78
